Time;durP1;ratioP1;P1;durP2;ratioP2;P2;SDS_P1;SDS_P2;PMS_P1;PMS_P2;Temp;Humidity;BMP_temperature;BMP_pressure;BME280_temperature;BME280_humidity;BME280_pressure;Samples;Min_cycle;Max_cycle;Signal;HPM_P1;HPM_P2
2021/11/28 00:01:58;;;;;;;5.47;3.17;;;;;;;;;;4409057;32;20313;-59
2021/11/28 00:04:24;;;;;;;5.67;3.17;;;;;;;;;;4418585;32;20278;-59
2021/11/28 00:07:00;;;;;;;6.40;3.23;;;;;;;;;;4416898;32;20586;-59
2021/11/28 00:09:42;;;;;;;9.73;3.03;;;;;;;;;;4418401;32;20204;-59
2021/11/28 00:12:14;;;;;;;7.30;2.37;;;;;;;;;;4418224;32;20719;-60
2021/11/28 00:14:41;;;;;;;5.53;2.07;;;;;;;;;;4418214;32;20648;-58
2021/11/28 00:17:07;;;;;;;6.70;2.33;;;;;;;;;;4416805;32;20251;-59
2021/11/28 00:19:33;;;;;;;5.67;3.20;;;;;;;;;;4418069;32;20660;-58
2021/11/28 00:21:58;;;;;;;5.90;2.70;;;;;;;;;;4418173;32;20237;-58
2021/11/28 00:24:24;;;;;;;5.23;2.27;;;;;;;;;;4418121;32;20314;-59
2021/11/28 00:26:50;;;;;;;8.70;4.60;;;;;;;;;;4417898;32;20193;-59
2021/11/28 00:29:16;;;;;;;10.97;3.33;;;;;;;;;;4418486;32;20216;-58
2021/11/28 00:31:41;;;;;;;13.00;3.67;;;;;;;;;;4417831;32;20292;-58
2021/11/28 00:34:07;;;;;;;9.33;4.43;;;;;;;;;;4418426;32;20228;-58
2021/11/28 00:36:32;;;;;;;10.80;3.30;;;;;;;;;;4417844;32;20209;-58
2021/11/28 00:38:58;;;;;;;8.33;3.13;;;;;;;;;;4418187;32;20287;-59
2021/11/28 00:41:24;;;;;;;6.53;3.93;;;;;;;;;;4417665;32;20220;-59
2021/11/28 00:43:49;;;;;;;8.87;3.57;;;;;;;;;;4416702;32;20253;-58
2021/11/28 00:46:15;;;;;;;7.80;3.33;;;;;;;;;;4418744;32;20268;-59
2021/11/28 00:48:44;;;;;;;5.37;3.17;;;;;;;;;;4419810;32;20310;-59
2021/11/28 00:53:47;;;;;;;5.70;2.70;;;;;;;;;;4420761;32;20273;-59
2021/11/28 00:56:13;;;;;;;6.43;3.20;;;;;;;;;;4420463;32;20208;-59
2021/11/28 00:58:39;;;;;;;5.40;2.67;;;;;;;;;;4420646;32;20237;-58
2021/11/28 01:01:05;;;;;;;3.47;2.40;;;;;;;;;;4420488;32;20280;-59
2021/11/28 01:03:31;;;;;;;3.57;2.07;;;;;;;;;;4420237;32;20368;-60
2021/11/28 01:05:59;;;;;;;3.73;2.40;;;;;;;;;;4420900;32;20686;-59
2021/11/28 01:08:24;;;;;;;3.47;2.00;;;;;;;;;;4420784;32;20323;-60
2021/11/28 01:10:50;;;;;;;9.80;2.63;;;;;;;;;;4420109;32;20279;-59
2021/11/28 01:13:17;;;;;;;3.97;2.63;;;;;;;;;;4420496;32;20392;-60
2021/11/28 01:15:42;;;;;;;6.83;2.47;;;;;;;;;;4420485;32;20205;-59
2021/11/28 01:18:08;;;;;;;5.57;2.10;;;;;;;;;;4420503;32;20281;-59
2021/11/28 01:20:33;;;;;;;6.80;2.30;;;;;;;;;;4420279;32;20281;-59
2021/11/28 01:22:59;;;;;;;5.67;2.33;;;;;;;;;;4420257;32;20225;-59
2021/11/28 01:25:24;;;;;;;4.50;2.30;;;;;;;;;;4420069;32;20291;-59
2021/11/28 01:27:50;;;;;;;4.60;2.30;;;;;;;;;;4420240;32;20296;-59
2021/11/28 01:30:16;;;;;;;4.40;2.13;;;;;;;;;;4420575;32;20280;-59
2021/11/28 01:32:43;;;;;;;4.80;1.70;;;;;;;;;;4420020;32;20273;-58
2021/11/28 01:35:10;;;;;;;6.90;2.10;;;;;;;;;;4420247;32;20201;-60
2021/11/28 01:37:37;;;;;;;6.47;2.33;;;;;;;;;;4420067;32;20197;-59
2021/11/28 01:40:05;;;;;;;2.17;1.90;;;;;;;;;;4420126;32;20288;-59
2021/11/28 01:42:43;;;;;;;3.87;1.90;;;;;;;;;;4420396;32;20280;-59
2021/11/28 01:45:12;;;;;;;2.20;1.50;;;;;;;;;;4406874;32;20193;-59
2021/11/28 01:47:38;;;;;;;3.63;1.60;;;;;;;;;;4404719;32;20205;-59
2021/11/28 01:50:04;;;;;;;4.30;1.70;;;;;;;;;;4404907;32;20697;-58
2021/11/28 01:52:30;;;;;;;4.23;1.57;;;;;;;;;;4404803;32;20232;-59
2021/11/28 01:54:55;;;;;;;3.83;1.80;;;;;;;;;;4404937;32;20307;-59
2021/11/28 01:57:21;;;;;;;2.60;1.50;;;;;;;;;;4404750;32;20276;-58
2021/11/28 01:59:47;;;;;;;2.93;1.40;;;;;;;;;;4404957;32;20255;-58
2021/11/28 02:02:12;;;;;;;8.53;3.30;;;;;;;;;;4412163;32;20614;-58
2021/11/28 02:04:39;;;;;;;3.70;1.67;;;;;;;;;;4419470;32;20225;-59
2021/11/28 02:07:07;;;;;;;4.97;1.30;;;;;;;;;;4418599;32;20636;-59
2021/11/28 02:09:38;;;;;;;1.83;1.43;;;;;;;;;;4419448;32;20313;-60
2021/11/28 02:12:05;;;;;;;6.20;2.73;;;;;;;;;;4419647;32;20197;-59
2021/11/28 02:14:31;;;;;;;5.10;2.80;;;;;;;;;;4419749;32;20922;-60
2021/11/28 02:16:56;;;;;;;11.60;6.97;;;;;;;;;;4419306;32;20363;-59
2021/11/28 02:19:21;;;;;;;19.03;14.30;;;;;;;;;;4419676;32;20290;-59
2021/11/28 02:21:47;;;;;;;12.53;8.57;;;;;;;;;;4419350;32;20232;-60
2021/11/28 02:24:13;;;;;;;11.60;6.23;;;;;;;;;;4419653;32;20217;-59
2021/11/28 02:26:38;;;;;;;10.70;6.13;;;;;;;;;;4419390;32;20617;-58
2021/11/28 02:29:03;;;;;;;10.90;6.70;;;;;;;;;;4419569;32;20236;-59
2021/11/28 02:31:29;;;;;;;10.30;6.57;;;;;;;;;;4419195;32;20198;-58
2021/11/28 02:33:54;;;;;;;17.50;7.10;;;;;;;;;;4419023;32;20661;-60
2021/11/28 02:36:20;;;;;;;9.23;5.83;;;;;;;;;;4419193;32;20205;-59
2021/11/28 02:38:45;;;;;;;8.30;4.50;;;;;;;;;;4418845;32;20217;-59
2021/11/28 02:41:11;;;;;;;8.53;5.20;;;;;;;;;;4406908;32;20277;-61
2021/11/28 02:43:37;;;;;;;7.57;4.37;;;;;;;;;;4404016;32;20313;-59
2021/11/28 02:46:05;;;;;;;12.57;5.23;;;;;;;;;;4403654;32;20268;-59
2021/11/28 02:48:31;;;;;;;11.20;5.27;;;;;;;;;;4403809;32;20344;-59
2021/11/28 02:50:58;;;;;;;10.43;6.27;;;;;;;;;;4403542;32;20299;-60
2021/11/28 02:53:25;;;;;;;12.17;8.93;;;;;;;;;;4403742;32;20350;-59
2021/11/28 02:55:55;;;;;;;11.93;7.83;;;;;;;;;;4402353;32;20357;-61
2021/11/28 02:58:23;;;;;;;12.43;7.97;;;;;;;;;;4402623;32;20705;-59
2021/11/28 03:00:57;;;;;;;12.07;6.73;;;;;;;;;;4403243;32;20202;-60
2021/11/28 03:03:23;;;;;;;11.83;7.23;;;;;;;;;;4414970;32;20294;-60
2021/11/28 03:05:48;;;;;;;17.80;8.67;;;;;;;;;;4418465;32;20734;-60
2021/11/28 03:08:15;;;;;;;20.00;7.73;;;;;;;;;;4418422;32;20538;-60
2021/11/28 03:10:50;;;;;;;14.87;6.70;;;;;;;;;;4418388;32;20624;-60
2021/11/28 03:13:15;;;;;;;14.60;7.27;;;;;;;;;;4418547;32;20287;-59
2021/11/28 03:15:40;;;;;;;11.03;5.57;;;;;;;;;;4418301;32;20374;-59
2021/11/28 03:18:18;;;;;;;11.17;4.67;;;;;;;;;;4418409;32;20225;-59
2021/11/28 03:20:44;;;;;;;18.37;6.10;;;;;;;;;;4418576;32;20254;-59
2021/11/28 03:23:11;;;;;;;12.23;6.80;;;;;;;;;;4418273;32;20650;-58
2021/11/28 03:25:38;;;;;;;11.50;6.30;;;;;;;;;;4416972;32;20224;-59
2021/11/28 03:28:04;;;;;;;12.07;7.17;;;;;;;;;;4418178;32;20221;-59
2021/11/28 03:30:29;;;;;;;15.87;7.57;;;;;;;;;;4418581;32;20298;-58
2021/11/28 03:32:55;;;;;;;10.17;5.87;;;;;;;;;;4418262;32;20374;-60
2021/11/28 03:35:20;;;;;;;17.47;8.97;;;;;;;;;;4418284;32;20713;-59
2021/11/28 03:37:46;;;;;;;19.67;10.40;;;;;;;;;;4417519;32;20606;-59
2021/11/28 03:40:13;;;;;;;17.37;8.17;;;;;;;;;;4417987;32;20272;-59
2021/11/28 03:42:39;;;;;;;13.43;6.70;;;;;;;;;;4417861;32;20209;-59
2021/11/28 03:45:11;;;;;;;13.63;6.73;;;;;;;;;;4417925;32;20300;-60
2021/11/28 03:47:36;;;;;;;13.97;6.83;;;;;;;;;;4418311;32;20260;-60
2021/11/28 03:50:05;;;;;;;9.37;5.73;;;;;;;;;;4416856;32;20418;-58
2021/11/28 03:52:31;;;;;;;13.47;7.17;;;;;;;;;;4416777;32;20222;-59
2021/11/28 03:54:57;;;;;;;17.97;9.67;;;;;;;;;;4417756;32;20315;-60
2021/11/28 03:57:23;;;;;;;27.00;10.77;;;;;;;;;;4418465;32;20289;-60
2021/11/28 03:59:48;;;;;;;17.67;10.40;;;;;;;;;;4418164;32;20232;-59
2021/11/28 04:02:14;;;;;;;14.67;8.67;;;;;;;;;;4417502;32;20327;-58
2021/11/28 04:04:40;;;;;;;13.93;8.57;;;;;;;;;;4418309;32;20272;-60
2021/11/28 04:07:06;;;;;;;15.70;7.97;;;;;;;;;;4418047;32;20656;-59
2021/11/28 04:09:31;;;;;;;13.17;6.70;;;;;;;;;;4417772;32;20574;-59
2021/11/28 04:11:56;;;;;;;28.07;9.73;;;;;;;;;;4418239;32;20352;-59
2021/11/28 04:14:22;;;;;;;17.30;7.80;;;;;;;;;;4416608;32;20228;-60
2021/11/28 04:16:47;;;;;;;15.20;7.10;;;;;;;;;;4417418;32;20223;-60
2021/11/28 04:19:13;;;;;;;13.20;7.33;;;;;;;;;;4417861;32;20298;-59
2021/11/28 04:21:42;;;;;;;14.77;8.13;;;;;;;;;;4419086;32;20196;-59
2021/11/28 04:24:08;;;;;;;14.53;9.37;;;;;;;;;;4421175;32;20228;-58
2021/11/28 04:26:33;;;;;;;16.23;8.20;;;;;;;;;;4420961;32;20225;-60
2021/11/28 04:29:00;;;;;;;14.33;7.30;;;;;;;;;;4421025;32;20262;-61
2021/11/28 04:31:26;;;;;;;11.57;5.87;;;;;;;;;;4420927;32;20224;-60
2021/11/28 04:33:51;;;;;;;10.40;6.37;;;;;;;;;;4407364;32;20598;-59
2021/11/28 04:36:17;;;;;;;11.17;6.30;;;;;;;;;;4405527;32;20288;-60
2021/11/28 04:38:42;;;;;;;8.03;6.40;;;;;;;;;;4405355;32;20249;-59
2021/11/28 04:41:08;;;;;;;10.97;6.13;;;;;;;;;;4405313;32;20366;-59
2021/11/28 04:43:33;;;;;;;12.53;7.23;;;;;;;;;;4405406;32;20671;-60
2021/11/28 04:45:59;;;;;;;21.60;7.90;;;;;;;;;;4405544;32;20389;-60
2021/11/28 04:48:24;;;;;;;16.53;8.80;;;;;;;;;;4405494;32;20247;-58
2021/11/28 04:50:50;;;;;;;21.73;10.50;;;;;;;;;;4405169;32;20857;-60
2021/11/28 04:53:15;;;;;;;20.70;10.13;;;;;;;;;;4403875;32;20301;-59
2021/11/28 04:55:41;;;;;;;24.60;11.37;;;;;;;;;;4405340;32;20376;-60
2021/11/28 04:58:06;;;;;;;23.23;11.17;;;;;;;;;;4405422;32;20218;-60
2021/11/28 05:00:32;;;;;;;25.00;10.87;;;;;;;;;;4405602;32;20705;-59
2021/11/28 05:02:58;;;;;;;26.40;11.57;;;;;;;;;;4405148;32;20261;-59
2021/11/28 05:05:25;;;;;;;21.77;10.73;;;;;;;;;;4403944;32;20292;-59
2021/11/28 05:07:51;;;;;;;27.90;15.07;;;;;;;;;;4404677;32;20267;-59
2021/11/28 05:10:16;;;;;;;26.77;15.10;;;;;;;;;;4409275;32;20316;-60
2021/11/28 05:12:42;;;;;;;28.93;13.87;;;;;;;;;;4404758;32;20228;-59
2021/11/28 05:15:08;;;;;;;20.73;11.20;;;;;;;;;;4405081;32;20349;-60
2021/11/28 05:17:33;;;;;;;38.30;18.37;;;;;;;;;;4405195;32;20210;-59
2021/11/28 05:20:00;;;;;;;31.47;13.93;;;;;;;;;;4405015;32;20611;-59
2021/11/28 05:22:26;;;;;;;25.23;12.67;;;;;;;;;;4404773;32;20209;-60
2021/11/28 05:24:52;;;;;;;26.03;13.73;;;;;;;;;;4405060;32;20326;-59
2021/11/28 05:27:18;;;;;;;27.87;13.40;;;;;;;;;;4404863;32;20281;-59
2021/11/28 05:29:44;;;;;;;41.60;15.27;;;;;;;;;;4405033;32;20234;-59
2021/11/28 05:32:10;;;;;;;24.97;13.43;;;;;;;;;;4404551;32;20239;-59
2021/11/28 05:34:36;;;;;;;49.10;21.77;;;;;;;;;;4404799;32;20340;-59
2021/11/28 05:37:02;;;;;;;56.17;28.60;;;;;;;;;;4404575;32;20701;-59
2021/11/28 05:39:27;;;;;;;56.43;24.17;;;;;;;;;;4416305;32;20221;-59
2021/11/28 05:41:53;;;;;;;43.37;20.67;;;;;;;;;;4404389;32;20209;-59
2021/11/28 05:44:18;;;;;;;45.83;20.33;;;;;;;;;;4404687;32;20294;-59
2021/11/28 05:46:44;;;;;;;41.73;18.70;;;;;;;;;;4404021;32;20577;-60
2021/11/28 05:49:10;;;;;;;48.47;20.90;;;;;;;;;;4403807;32;20275;-60
2021/11/28 05:51:36;;;;;;;32.77;16.33;;;;;;;;;;4403776;32;20266;-59
2021/11/28 05:54:01;;;;;;;35.20;16.97;;;;;;;;;;4402809;32;20246;-59
2021/11/28 05:56:30;;;;;;;30.97;16.67;;;;;;;;;;4402892;32;20274;-60
2021/11/28 05:58:57;;;;;;;28.80;14.73;;;;;;;;;;4404566;32;20268;-59
2021/11/28 06:01:22;;;;;;;41.57;18.57;;;;;;;;;;4405847;32;20256;-60
2021/11/28 06:03:48;;;;;;;40.90;21.10;;;;;;;;;;4415359;32;20337;-59
2021/11/28 06:06:13;;;;;;;44.27;22.00;;;;;;;;;;4404666;32;20337;-60
2021/11/28 06:08:39;;;;;;;32.13;17.93;;;;;;;;;;4404122;32;20283;-59
2021/11/28 06:11:04;;;;;;;31.07;16.43;;;;;;;;;;4416857;32;20288;-59
2021/11/28 06:13:30;;;;;;;26.07;15.50;;;;;;;;;;4419317;32;20249;-59
2021/11/28 06:15:55;;;;;;;16.13;11.00;;;;;;;;;;4419104;32;20691;-60
2021/11/28 06:18:21;;;;;;;23.43;13.10;;;;;;;;;;4419377;32;20343;-59
2021/11/28 06:20:47;;;;;;;23.53;11.23;;;;;;;;;;4417635;32;20487;-59
2021/11/28 06:23:13;;;;;;;22.10;12.23;;;;;;;;;;4419034;32;20225;-59
2021/11/28 06:25:38;;;;;;;30.17;14.83;;;;;;;;;;4417967;32;20754;-59
2021/11/28 06:28:04;;;;;;;27.37;17.77;;;;;;;;;;4417826;32;20255;-60
2021/11/28 06:30:30;;;;;;;30.47;15.27;;;;;;;;;;4419077;32;20296;-59
2021/11/28 06:32:57;;;;;;;34.77;17.87;;;;;;;;;;4418692;32;20260;-60
2021/11/28 06:35:23;;;;;;;35.17;19.70;;;;;;;;;;4419316;32;20205;-58
2021/11/28 06:37:48;;;;;;;42.57;20.20;;;;;;;;;;4418566;32;20205;-59
2021/11/28 06:40:14;;;;;;;33.83;18.50;;;;;;;;;;4418904;32;20306;-58
2021/11/28 06:42:39;;;;;;;39.63;21.47;;;;;;;;;;4418588;32;20277;-59
2021/11/28 06:45:05;;;;;;;51.40;28.40;;;;;;;;;;4418118;32;20340;-59
2021/11/28 06:47:31;;;;;;;45.40;29.37;;;;;;;;;;4418839;32;20335;-60
2021/11/28 06:49:56;;;;;;;32.43;21.57;;;;;;;;;;4418785;32;20324;-59
2021/11/28 06:52:22;;;;;;;26.13;15.87;;;;;;;;;;4418808;32;20525;-58
2021/11/28 06:54:47;;;;;;;20.93;11.40;;;;;;;;;;4418916;32;20271;-60
2021/11/28 06:57:12;;;;;;;18.33;11.77;;;;;;;;;;4418811;32;20200;-59
2021/11/28 06:59:38;;;;;;;17.90;12.43;;;;;;;;;;4418980;32;20646;-59
2021/11/28 07:02:03;;;;;;;18.27;13.13;;;;;;;;;;4415607;32;20217;-59
2021/11/28 07:04:29;;;;;;;24.67;13.23;;;;;;;;;;4403999;32;20252;-59
2021/11/28 07:06:54;;;;;;;39.80;18.10;;;;;;;;;;4403687;32;20236;-59
2021/11/28 07:09:20;;;;;;;44.33;23.63;;;;;;;;;;4405939;32;20561;-59
2021/11/28 07:11:46;;;;;;;55.90;33.47;;;;;;;;;;4418586;32;20285;-58
2021/11/28 07:14:11;;;;;;;49.03;29.20;;;;;;;;;;4418543;32;20320;-60
2021/11/28 07:16:37;;;;;;;94.97;44.63;;;;;;;;;;4418602;32;20720;-60
2021/11/28 07:19:03;;;;;;;66.47;37.67;;;;;;;;;;4417643;32;20613;-58
2021/11/28 07:21:28;;;;;;;53.23;34.00;;;;;;;;;;4414004;32;20233;-60
2021/11/28 07:23:53;;;;;;;59.30;30.27;;;;;;;;;;4403146;32;20316;-59
2021/11/28 07:26:19;;;;;;;47.37;28.00;;;;;;;;;;4403678;32;20342;-60
2021/11/28 07:28:45;;;;;;;49.23;29.23;;;;;;;;;;4408366;32;20217;-59
2021/11/28 07:31:10;;;;;;;59.60;33.13;;;;;;;;;;4418277;32;20606;-59
2021/11/28 07:33:37;;;;;;;58.17;34.70;;;;;;;;;;4418585;32;20224;-60
2021/11/28 07:36:03;;;;;;;64.63;36.40;;;;;;;;;;4417024;32;20838;-60
2021/11/28 07:38:29;;;;;;;65.10;35.27;;;;;;;;;;4418369;32;20236;-59
2021/11/28 07:40:55;;;;;;;57.67;35.47;;;;;;;;;;4416359;32;20388;-59
2021/11/28 07:43:21;;;;;;;48.73;30.53;;;;;;;;;;4417907;32;20300;-59
2021/11/28 07:45:46;;;;;;;55.07;29.67;;;;;;;;;;4417789;32;20322;-60
2021/11/28 07:48:12;;;;;;;34.73;18.80;;;;;;;;;;4418163;32;20476;-60
2021/11/28 07:50:37;;;;;;;32.93;19.60;;;;;;;;;;4417949;32;20616;-58
2021/11/28 07:53:03;;;;;;;36.07;22.17;;;;;;;;;;4418182;32;20297;-59
2021/11/28 07:55:28;;;;;;;71.07;40.03;;;;;;;;;;4418435;32;20419;-59
2021/11/28 07:57:54;;;;;;;68.70;36.00;;;;;;;;;;4418022;32;20807;-60
2021/11/28 08:00:19;;;;;;;70.70;37.73;;;;;;;;;;4416495;32;20312;-59
2021/11/28 08:02:45;;;;;;;54.43;31.37;;;;;;;;;;4417347;32;20240;-59
2021/11/28 08:05:11;;;;;;;52.60;29.10;;;;;;;;;;4418571;32;20380;-60
2021/11/28 08:07:36;;;;;;;49.47;28.90;;;;;;;;;;4417625;32;20225;-59
2021/11/28 08:10:04;;;;;;;46.90;28.23;;;;;;;;;;4417870;32;20265;-58
2021/11/28 08:12:29;;;;;;;48.97;25.50;;;;;;;;;;4417256;32;20538;-59
2021/11/28 08:14:55;;;;;;;44.17;23.00;;;;;;;;;;4417347;32;20311;-59
2021/11/28 08:17:20;;;;;;;41.13;22.03;;;;;;;;;;4415913;32;20490;-58
2021/11/28 08:19:46;;;;;;;37.90;21.40;;;;;;;;;;4416692;32;20437;-59
2021/11/28 08:22:11;;;;;;;72.90;40.80;;;;;;;;;;4417342;32;20276;-59
2021/11/28 08:24:38;;;;;;;59.33;34.20;;;;;;;;;;4417596;32;20224;-59
2021/11/28 08:27:04;;;;;;;45.13;23.67;;;;;;;;;;4416331;32;20309;-59
2021/11/28 08:29:30;;;;;;;41.80;22.17;;;;;;;;;;4417583;32;20229;-60
2021/11/28 08:31:55;;;;;;;38.50;21.60;;;;;;;;;;4417226;32;20216;-59
2021/11/28 08:34:21;;;;;;;40.80;20.93;;;;;;;;;;4416714;32;20367;-60
2021/11/28 08:36:46;;;;;;;28.20;17.17;;;;;;;;;;4417311;32;20247;-59
2021/11/28 08:39:12;;;;;;;28.47;16.10;;;;;;;;;;4416969;32;20293;-59
2021/11/28 08:41:39;;;;;;;29.27;17.17;;;;;;;;;;4417506;32;20197;-58
2021/11/28 08:44:05;;;;;;;32.60;17.03;;;;;;;;;;4417403;32;20285;-60
2021/11/28 08:46:30;;;;;;;48.97;19.03;;;;;;;;;;4417474;32;20697;-60
2021/11/28 08:48:57;;;;;;;29.63;19.07;;;;;;;;;;4417695;32;20317;-59
2021/11/28 08:51:25;;;;;;;29.47;17.77;;;;;;;;;;4417487;32;20236;-59
2021/11/28 08:53:51;;;;;;;33.73;16.93;;;;;;;;;;4417242;32;20297;-60
2021/11/28 08:56:17;;;;;;;26.03;15.87;;;;;;;;;;4416919;32;20361;-59
2021/11/28 08:58:43;;;;;;;29.93;16.73;;;;;;;;;;4416871;32;20221;-59
2021/11/28 09:01:08;;;;;;;32.63;18.63;;;;;;;;;;4415439;32;20284;-59
2021/11/28 09:03:34;;;;;;;24.37;15.73;;;;;;;;;;4416630;32;20329;-59
2021/11/28 09:05:59;;;;;;;23.53;13.47;;;;;;;;;;4417157;32;20271;-60
2021/11/28 09:08:25;;;;;;;29.13;15.47;;;;;;;;;;4419388;32;20293;-59
2021/11/28 09:10:50;;;;;;;25.03;14.57;;;;;;;;;;4419646;32;20330;-59
2021/11/28 09:13:16;;;;;;;28.47;13.67;;;;;;;;;;4417805;32;20225;-60
2021/11/28 09:15:42;;;;;;;24.87;13.73;;;;;;;;;;4404720;32;20302;-59
2021/11/28 09:18:14;;;;;;;28.53;16.23;;;;;;;;;;4404935;32;20230;-59
2021/11/28 09:20:43;;;;;;;26.73;14.77;;;;;;;;;;4404248;32;20202;-59
2021/11/28 09:25:35;;;;;;;23.17;12.27;;;;;;;;;;4404592;32;20310;-59
2021/11/28 09:28:02;;;;;;;11.80;8.73;;;;;;;;;;4404656;32;20233;-60
2021/11/28 09:30:29;;;;;;;31.17;13.37;;;;;;;;;;4404183;32;20193;-59
2021/11/28 09:32:56;;;;;;;121.63;77.77;;;;;;;;;;4404390;32;20267;-59
2021/11/28 09:35:25;;;;;;;23.03;12.53;;;;;;;;;;4404402;32;20385;-58
2021/11/28 09:37:53;;;;;;;18.50;10.87;;;;;;;;;;4403491;32;20755;-59
2021/11/28 09:40:18;;;;;;;23.57;13.50;;;;;;;;;;4404457;32;20229;-59
2021/11/28 09:43:06;;;;;;;23.93;13.47;;;;;;;;;;4402469;32;20459;-59
2021/11/28 09:45:31;;;;;;;20.83;13.70;;;;;;;;;;4403946;32;20748;-60
2021/11/28 09:47:59;;;;;;;23.83;15.27;;;;;;;;;;4404088;32;20210;-59
2021/11/28 09:50:26;;;;;;;14.33;10.87;;;;;;;;;;4403533;32;20313;-59
2021/11/28 09:52:52;;;;;;;6.00;4.80;;;;;;;;;;4403460;32;20720;-58
2021/11/28 09:55:19;;;;;;;6.63;3.70;;;;;;;;;;4390154;32;20359;-59
2021/11/28 09:57:45;;;;;;;4.43;3.03;;;;;;;;;;4415115;32;20249;-58
2021/11/28 10:00:13;;;;;;;5.10;2.03;;;;;;;;;;4402893;32;20328;-60
2021/11/28 10:02:40;;;;;;;3.50;2.03;;;;;;;;;;4412523;32;20260;-59
2021/11/28 10:05:08;;;;;;;3.90;2.03;;;;;;;;;;4419139;32;20265;-61
2021/11/28 10:07:38;;;;;;;2.53;1.93;;;;;;;;;;4418852;32;20217;-59
2021/11/28 10:10:04;;;;;;;7.37;3.07;;;;;;;;;;4418656;32;20555;-58
2021/11/28 10:12:33;;;;;;;2.87;1.80;;;;;;;;;;4418926;32;20244;-58
2021/11/28 10:15:06;;;;;;;6.10;2.47;;;;;;;;;;4418838;32;20228;-59
2021/11/28 10:17:36;;;;;;;5.60;2.13;;;;;;;;;;4419320;32;20308;-59
2021/11/28 10:20:04;;;;;;;3.73;2.17;;;;;;;;;;4417900;32;20782;-59
2021/11/28 10:22:30;;;;;;;2.97;2.27;;;;;;;;;;4418827;32;20197;-59
2021/11/28 10:25:11;;;;;;;5.87;1.90;;;;;;;;;;4418406;32;20338;-60
2021/11/28 10:27:46;;;;;;;5.47;3.33;;;;;;;;;;4418441;32;20252;-59
2021/11/28 10:30:17;;;;;;;4.07;2.20;;;;;;;;;;4417966;32;20295;-59
2021/11/28 10:32:45;;;;;;;3.43;1.63;;;;;;;;;;4418484;32;20186;-59
2021/11/28 10:35:12;;;;;;;26.97;16.43;;;;;;;;;;4416810;32;20258;-59
2021/11/28 10:37:46;;;;;;;6.57;3.00;;;;;;;;;;4418026;32;20374;-59
2021/11/28 10:40:19;;;;;;;6.93;4.27;;;;;;;;;;4418229;32;20258;-59
2021/11/28 10:42:48;;;;;;;6.57;3.30;;;;;;;;;;4418143;32;20205;-60
2021/11/28 10:45:19;;;;;;;3.40;1.90;;;;;;;;;;4418624;32;20227;-59
2021/11/28 10:47:50;;;;;;;4.23;2.47;;;;;;;;;;4416957;32;20272;-59
2021/11/28 10:50:23;;;;;;;4.20;2.33;;;;;;;;;;4418088;32;20633;-59
2021/11/28 10:53:02;;;;;;;3.17;1.17;;;;;;;;;;4417470;32;20276;-59
2021/11/28 10:55:33;;;;;;;2.73;1.90;;;;;;;;;;4418235;32;20220;-60
2021/11/28 10:58:09;;;;;;;2.83;2.13;;;;;;;;;;4416571;32;20221;-58
2021/11/28 11:00:59;;;;;;;6.77;1.70;;;;;;;;;;4416361;32;20261;-58
2021/11/28 11:03:25;;;;;;;23.87;8.27;;;;;;;;;;4411966;32;20312;-59
2021/11/28 11:06:11;;;;;;;6.03;2.70;;;;;;;;;;4416117;32;20349;-58
2021/11/28 11:08:36;;;;;;;4.17;2.60;;;;;;;;;;4402439;32;20748;-59
2021/11/28 11:11:10;;;;;;;16.53;7.83;;;;;;;;;;4416148;32;20348;-60
2021/11/28 11:13:54;;;;;;;7.90;2.33;;;;;;;;;;4412169;32;20221;-59
2021/11/28 11:16:33;;;;;;;7.53;2.77;;;;;;;;;;4402735;32;20228;-58
2021/11/28 11:19:28;;;;;;;10.20;4.80;;;;;;;;;;4404482;32;20268;-59
2021/11/28 11:22:15;;;;;;;15.10;6.03;;;;;;;;;;4404560;32;20221;-59
2021/11/28 11:24:49;;;;;;;5.93;1.83;;;;;;;;;;4412983;32;20290;-58
2021/11/28 11:27:28;;;;;;;29.97;10.33;;;;;;;;;;4400362;32;20558;-59
2021/11/28 11:30:03;;;;;;;23.93;9.37;;;;;;;;;;4401418;32;20218;-59
2021/11/28 11:32:40;;;;;;;11.37;5.90;;;;;;;;;;4401982;32;20653;-57
2021/11/28 11:35:09;;;;;;;10.90;4.40;;;;;;;;;;4402140;32;20301;-58
2021/11/28 11:37:37;;;;;;;33.93;13.77;;;;;;;;;;4402481;32;20523;-60
2021/11/28 11:40:09;;;;;;;1.93;1.57;;;;;;;;;;4402806;32;20193;-59
2021/11/28 11:42:39;;;;;;;14.10;5.50;;;;;;;;;;4402291;32;20561;-59
2021/11/28 11:45:07;;;;;;;5.40;2.90;;;;;;;;;;4403138;32;20202;-59
2021/11/28 11:47:33;;;;;;;7.43;2.57;;;;;;;;;;4402502;32;20303;-59
2021/11/28 11:49:59;;;;;;;3.70;1.80;;;;;;;;;;4402331;32;20317;-59
2021/11/28 11:52:25;;;;;;;39.43;15.03;;;;;;;;;;4413843;32;20577;-60
2021/11/28 11:54:52;;;;;;;4.03;2.17;;;;;;;;;;4403122;32;20248;-59
2021/11/28 11:57:36;;;;;;;10.00;5.30;;;;;;;;;;4403024;32;20619;-60
2021/11/28 12:00:12;;;;;;;2.87;2.10;;;;;;;;;;4403342;32;20364;-59
2021/11/28 12:02:42;;;;;;;9.17;3.17;;;;;;;;;;4414979;32;20308;-59
2021/11/28 12:05:23;;;;;;;2.93;1.67;;;;;;;;;;4402822;32;20233;-59
2021/11/28 12:08:13;;;;;;;1.70;0.90;;;;;;;;;;4402449;32;20547;-58
2021/11/28 12:10:46;;;;;;;2.33;1.20;;;;;;;;;;4403351;32;20214;-60
2021/11/28 12:13:27;;;;;;;1.83;1.20;;;;;;;;;;4402842;32;20712;-60
2021/11/28 12:15:54;;;;;;;4.57;2.20;;;;;;;;;;4403089;32;20248;-59
2021/11/28 12:18:49;;;;;;;8.57;1.53;;;;;;;;;;4402314;32;20309;-58
2021/11/28 12:21:38;;;;;;;5.97;2.77;;;;;;;;;;4401349;32;20249;-59
2021/11/28 12:24:11;;;;;;;2.10;1.20;;;;;;;;;;4402722;32;20590;-59
2021/11/28 12:26:48;;;;;;;2.97;1.87;;;;;;;;;;4402348;32;20202;-60
2021/11/28 12:29:16;;;;;;;7.40;1.67;;;;;;;;;;4402445;32;20221;-59
2021/11/28 12:31:52;;;;;;;1.97;1.00;;;;;;;;;;4401087;32;20312;-59
2021/11/28 12:34:39;;;;;;;4.67;1.83;;;;;;;;;;4402707;32;20225;-59
2021/11/28 12:37:18;;;;;;;5.23;1.67;;;;;;;;;;4402608;32;20272;-59
2021/11/28 12:39:43;;;;;;;2.67;1.10;;;;;;;;;;4402571;32;20255;-59
2021/11/28 12:42:14;;;;;;;1.77;1.27;;;;;;;;;;4402871;32;20246;-59
2021/11/28 12:44:48;;;;;;;3.30;1.57;;;;;;;;;;4404988;32;20605;-59
2021/11/28 12:47:14;;;;;;;2.97;1.70;;;;;;;;;;4403331;32;20217;-58
2021/11/28 12:49:51;;;;;;;4.00;1.90;;;;;;;;;;4404802;32;20386;-59
2021/11/28 12:52:31;;;;;;;3.37;2.63;;;;;;;;;;4405502;32;20206;-59
2021/11/28 12:55:02;;;;;;;2.60;1.87;;;;;;;;;;4403707;32;20271;-60
2021/11/28 12:57:29;;;;;;;4.70;1.70;;;;;;;;;;4405196;32;20247;-59
2021/11/28 13:00:25;;;;;;;2.67;1.83;;;;;;;;;;4406013;32;20751;-59
2021/11/28 13:03:05;;;;;;;2.60;1.67;;;;;;;;;;4416376;32;20205;-59
2021/11/28 13:05:50;;;;;;;3.23;2.00;;;;;;;;;;4420684;32;20201;-59
2021/11/28 13:08:16;;;;;;;4.50;1.60;;;;;;;;;;4420329;32;20579;-58
2021/11/28 13:10:48;;;;;;;3.27;2.57;;;;;;;;;;4420247;32;20322;-60
2021/11/28 13:13:25;;;;;;;2.60;1.60;;;;;;;;;;4418983;32;20225;-59
2021/11/28 13:15:54;;;;;;;4.60;1.40;;;;;;;;;;4420017;32;20201;-59
2021/11/28 13:18:25;;;;;;;4.30;2.23;;;;;;;;;;4420175;32;20221;-59
2021/11/28 13:20:54;;;;;;;5.03;2.00;;;;;;;;;;4420402;32;20235;-59
2021/11/28 13:23:21;;;;;;;3.17;1.60;;;;;;;;;;4420294;32;20350;-58
2021/11/28 13:25:53;;;;;;;2.17;1.53;;;;;;;;;;4420200;32;20626;-59
2021/11/28 13:28:28;;;;;;;4.07;2.90;;;;;;;;;;4420222;32;20642;-60
2021/11/28 13:30:59;;;;;;;4.10;2.07;;;;;;;;;;4420580;32;20201;-59
2021/11/28 13:33:30;;;;;;;4.00;2.10;;;;;;;;;;4419914;32;20652;-59
2021/11/28 13:35:55;;;;;;;10.80;1.57;;;;;;;;;;4420008;32;20265;-58
2021/11/28 13:38:24;;;;;;;6.27;1.97;;;;;;;;;;4420203;32;20300;-58
2021/11/28 13:41:07;;;;;;;11.27;2.00;;;;;;;;;;4419938;32;20208;-59
2021/11/28 13:43:54;;;;;;;3.70;1.40;;;;;;;;;;4420002;32;20303;-58
2021/11/28 13:46:32;;;;;;;3.13;2.50;;;;;;;;;;4418823;32;20221;-59
2021/11/28 13:49:03;;;;;;;6.63;2.90;;;;;;;;;;4420126;32;20308;-59
2021/11/28 13:51:44;;;;;;;4.60;2.90;;;;;;;;;;4420092;32;20530;-58
2021/11/28 13:54:14;;;;;;;3.17;2.00;;;;;;;;;;4419052;32;20531;-59
2021/11/28 13:56:46;;;;;;;2.97;2.07;;;;;;;;;;4419144;32;20239;-58
2021/11/28 13:59:15;;;;;;;2.27;2.03;;;;;;;;;;4420423;32;20281;-58
2021/11/28 14:01:40;;;;;;;6.87;2.47;;;;;;;;;;4418632;32;20242;-60
2021/11/28 14:04:23;;;;;;;4.50;2.63;;;;;;;;;;4420573;32;20288;-60
2021/11/28 14:06:49;;;;;;;4.10;2.00;;;;;;;;;;4419911;32;20261;-59
2021/11/28 14:09:15;;;;;;;4.43;2.00;;;;;;;;;;4418697;32;20310;-60
2021/11/28 14:11:42;;;;;;;4.80;3.23;;;;;;;;;;4419299;32;20271;-59
2021/11/28 14:14:11;;;;;;;7.70;3.27;;;;;;;;;;4417812;32;20638;-59
2021/11/28 14:16:37;;;;;;;3.27;2.10;;;;;;;;;;4419304;32;20212;-59
2021/11/28 14:19:03;;;;;;;4.97;2.60;;;;;;;;;;4418549;32;20229;-59
2021/11/28 14:21:31;;;;;;;3.20;2.60;;;;;;;;;;4419032;32;20228;-59
2021/11/28 14:23:57;;;;;;;5.93;2.13;;;;;;;;;;4418034;32;20251;-59
2021/11/28 14:26:28;;;;;;;2.47;2.20;;;;;;;;;;4419154;32;20329;-59
2021/11/28 14:28:54;;;;;;;2.37;2.17;;;;;;;;;;4418974;32;20713;-58
2021/11/28 14:31:19;;;;;;;2.70;2.43;;;;;;;;;;4419144;32;20204;-59
2021/11/28 14:33:49;;;;;;;5.77;2.50;;;;;;;;;;4419257;32;20221;-58
2021/11/28 14:36:31;;;;;;;5.10;2.27;;;;;;;;;;4419324;32;20262;-58
2021/11/28 14:39:08;;;;;;;3.13;2.37;;;;;;;;;;4419059;32;20670;-59
2021/11/28 14:41:35;;;;;;;1.93;1.70;;;;;;;;;;4419332;32;20269;-59
2021/11/28 14:44:05;;;;;;;4.77;2.60;;;;;;;;;;4418241;32;20225;-59